createdAt,value
2022-10-07T00:00:50.230Z,7.13
2022-10-07T00:03:37.678Z,6.77
2022-10-07T00:06:26.882Z,6.00
2022-10-07T00:09:13.902Z,8.40
2022-10-07T00:12:01.122Z,7.07
2022-10-07T00:14:48.351Z,6.93
2022-10-07T00:17:35.886Z,8.20
2022-10-07T00:20:22.911Z,10.90
2022-10-07T00:23:11.533Z,7.67
2022-10-07T00:26:01.583Z,8.13
2022-10-07T00:28:49.751Z,8.00
2022-10-07T00:31:39.146Z,6.77
2022-10-07T00:34:26.573Z,5.93
2022-10-07T00:37:13.950Z,9.43
2022-10-07T00:40:04.922Z,9.17
2022-10-07T00:42:51.904Z,5.33
2022-10-07T00:45:39.412Z,5.93
2022-10-07T00:48:30.529Z,6.37
2022-10-07T00:51:18.682Z,4.03
2022-10-07T00:54:11.127Z,8.17
2022-10-07T00:56:59.980Z,10.00
2022-10-07T00:59:47.113Z,6.30
2022-10-07T01:02:35.711Z,6.70
2022-10-07T01:05:23.963Z,11.30
2022-10-07T01:08:11.047Z,5.87
2022-10-07T01:11:13.938Z,5.13
2022-10-07T01:14:11.152Z,6.50
2022-10-07T01:17:05.714Z,4.50
2022-10-07T01:20:12.343Z,6.63
2022-10-07T01:23:16.653Z,5.00
2022-10-07T01:26:42.687Z,3.93
2022-10-07T01:29:33.989Z,6.00
2022-10-07T01:32:24.455Z,4.40
2022-10-07T01:35:14.979Z,5.63
2022-10-07T01:38:06.267Z,4.57
2022-10-07T01:41:00.556Z,4.53
2022-10-07T01:43:52.552Z,4.63
2022-10-07T01:46:40.457Z,5.27
2022-10-07T01:49:29.270Z,6.07
2022-10-07T01:52:36.161Z,5.77
2022-10-07T01:55:38.771Z,4.90
2022-10-07T01:58:34.522Z,5.20
2022-10-07T02:01:35.443Z,4.80
2022-10-07T02:04:37.499Z,3.63
2022-10-07T02:07:35.511Z,3.97
2022-10-07T02:10:28.763Z,3.87
2022-10-07T02:13:25.023Z,5.93
2022-10-07T02:16:19.601Z,5.37
2022-10-07T02:19:12.966Z,6.03
2022-10-07T02:22:02.106Z,6.73
2022-10-07T02:24:52.548Z,6.73
2022-10-07T02:27:42.051Z,5.33
2022-10-07T02:30:29.730Z,6.87
2022-10-07T02:33:17.494Z,5.27
2022-10-07T02:36:11.938Z,5.27
2022-10-07T02:39:00.240Z,7.53
2022-10-07T02:41:52.677Z,9.17
2022-10-07T02:44:49.159Z,7.20
2022-10-07T02:47:43.528Z,9.50
2022-10-07T02:50:37.494Z,10.67
2022-10-07T02:53:29.169Z,7.70
2022-10-07T02:56:17.146Z,6.33
2022-10-07T02:59:06.846Z,6.93
2022-10-07T03:01:58.007Z,7.13
2022-10-07T03:04:45.689Z,9.67
2022-10-07T03:07:33.320Z,8.57
2022-10-07T03:10:22.419Z,11.50
2022-10-07T03:13:09.566Z,7.03
2022-10-07T03:15:59.781Z,7.80
2022-10-07T03:18:48.814Z,6.87
2022-10-07T03:21:49.210Z,7.10
2022-10-07T03:24:36.667Z,4.93
2022-10-07T03:27:25.642Z,6.70
2022-10-07T03:30:13.902Z,4.93
2022-10-07T03:33:01.771Z,4.33
2022-10-07T03:35:49.046Z,3.77
2022-10-07T03:38:36.478Z,6.03
2022-10-07T03:41:24.305Z,5.77
2022-10-07T03:44:16.050Z,4.77
2022-10-07T03:47:07.586Z,5.73
2022-10-07T03:49:58.031Z,5.50
2022-10-07T03:52:45.587Z,4.57
2022-10-07T03:55:33.161Z,5.00
2022-10-07T03:58:20.328Z,5.10
2022-10-07T04:01:11.161Z,5.87
2022-10-07T04:04:03.211Z,4.47
2022-10-07T04:06:55.006Z,4.17
2022-10-07T04:09:42.891Z,7.70
2022-10-07T04:12:33.472Z,9.10
2022-10-07T04:15:21.503Z,7.47
2022-10-07T04:18:12.050Z,8.80
2022-10-07T04:21:01.002Z,11.33
2022-10-07T04:23:49.913Z,8.23
2022-10-07T04:26:37.584Z,10.10
2022-10-07T04:29:24.706Z,8.10
2022-10-07T04:32:12.725Z,8.80
2022-10-07T04:35:03.828Z,8.23
2022-10-07T04:37:51.627Z,8.63
2022-10-07T04:40:41.150Z,8.73
2022-10-07T04:43:33.732Z,9.97
2022-10-07T04:46:26.247Z,7.83
2022-10-07T04:49:19.987Z,5.83
2022-10-07T04:52:08.765Z,7.10
2022-10-07T04:54:58.791Z,7.17
2022-10-07T04:57:46.458Z,8.10
2022-10-07T05:00:33.987Z,8.07
2022-10-07T05:03:23.246Z,6.17
2022-10-07T05:06:10.555Z,7.20
2022-10-07T05:09:00.893Z,7.60
2022-10-07T05:11:55.543Z,5.63
2022-10-07T05:14:43.041Z,7.07
2022-10-07T05:17:31.309Z,5.83
2022-10-07T05:20:18.431Z,4.47
2022-10-07T05:23:05.718Z,9.27
2022-10-07T05:26:00.390Z,6.63
2022-10-07T05:28:49.309Z,4.50
2022-10-07T05:31:41.245Z,6.17
2022-10-07T05:34:28.921Z,9.77
2022-10-07T05:37:16.091Z,5.70
2022-10-07T05:40:03.325Z,7.03
2022-10-07T05:42:52.476Z,5.17
2022-10-07T05:45:40.503Z,6.17
2022-10-07T05:48:28.952Z,5.77
2022-10-07T05:51:17.313Z,4.27
2022-10-07T05:54:04.707Z,5.73
2022-10-07T05:56:57.090Z,8.73
2022-10-07T05:59:45.945Z,4.60
2022-10-07T06:02:32.892Z,6.47
2022-10-07T06:05:20.060Z,8.17
2022-10-07T06:08:07.627Z,6.00
2022-10-07T06:11:12.840Z,9.13
2022-10-07T06:14:00.677Z,7.50
2022-10-07T06:16:49.216Z,8.93
2022-10-07T06:19:37.899Z,7.40
2022-10-07T06:22:25.057Z,9.57
2022-10-07T06:25:12.382Z,5.07
2022-10-07T06:28:01.204Z,7.10
2022-10-07T06:30:48.558Z,8.30
2022-10-07T06:33:37.153Z,11.07
2022-10-07T06:36:24.263Z,9.60
2022-10-07T06:39:16.957Z,7.87
2022-10-07T06:42:06.042Z,6.10
2022-10-07T06:45:04.025Z,7.33
2022-10-07T06:47:53.373Z,8.10
2022-10-07T06:50:51.214Z,11.13
2022-10-07T06:53:38.393Z,6.60
2022-10-07T06:56:25.795Z,5.93
2022-10-07T06:59:13.382Z,6.47
2022-10-07T07:02:08.265Z,9.70
2022-10-07T07:04:57.882Z,6.93
2022-10-07T07:07:47.733Z,7.07
2022-10-07T07:10:38.590Z,4.80
2022-10-07T07:13:26.397Z,4.75
2022-10-07T07:16:13.451Z,5.78
2022-10-07T07:19:02.590Z,5.60
2022-10-07T07:21:51.334Z,6.47
2022-10-07T07:24:41.835Z,6.10
2022-10-07T07:27:29.251Z,7.22
2022-10-07T07:30:16.569Z,6.65
2022-10-07T07:33:05.295Z,7.47
2022-10-07T07:35:52.719Z,15.77
2022-10-07T07:38:40.381Z,3.70
2022-10-07T07:41:30.985Z,3.58
2022-10-07T07:44:20.138Z,4.43
2022-10-07T07:47:08.756Z,4.97
2022-10-07T07:49:56.316Z,5.03
2022-10-07T07:52:49.759Z,4.15
2022-10-07T07:55:38.695Z,4.60
2022-10-07T07:58:28.430Z,4.25
2022-10-07T08:01:18.532Z,5.82
2022-10-07T08:04:07.419Z,5.65
2022-10-07T08:06:55.494Z,5.03
2022-10-07T08:09:43.907Z,4.00
2022-10-07T08:12:33.207Z,7.65
2022-10-07T08:15:21.546Z,10.00
2022-10-07T08:18:08.794Z,3.58
2022-10-07T08:20:59.370Z,6.35
2022-10-07T08:23:48.684Z,6.75
2022-10-07T08:26:37.222Z,3.35
2022-10-07T08:29:26.457Z,6.22
2022-10-07T08:32:15.050Z,5.70
2022-10-07T08:35:01.861Z,5.10
2022-10-07T08:37:48.924Z,5.25
2022-10-07T08:40:37.674Z,5.72
2022-10-07T08:43:25.923Z,6.00
2022-10-07T08:46:16.811Z,3.38
2022-10-07T08:49:09.107Z,4.22
2022-10-07T08:52:02.933Z,5.78
2022-10-07T08:54:50.049Z,3.13
2022-10-07T08:57:50.754Z,2.58
2022-10-07T09:00:43.195Z,3.45
2022-10-07T09:03:40.239Z,5.32
2022-10-07T09:06:34.485Z,3.00
2022-10-07T09:09:25.490Z,2.92
2022-10-07T09:12:22.774Z,4.25
2022-10-07T09:15:20.040Z,5.05
2022-10-07T09:18:17.164Z,5.05
2022-10-07T09:21:08.429Z,4.10
2022-10-07T09:24:02.218Z,6.03
2022-10-07T09:26:49.492Z,4.85
2022-10-07T09:29:37.986Z,5.35
2022-10-07T09:32:25.198Z,4.90
2022-10-07T09:35:14.189Z,2.75
2022-10-07T09:38:03.666Z,2.80
2022-10-07T09:41:17.984Z,6.07
2022-10-07T09:44:07.491Z,2.45
2022-10-07T09:46:59.453Z,4.82
2022-10-07T09:49:51.565Z,3.55
2022-10-07T09:52:38.678Z,2.65
2022-10-07T09:55:37.407Z,4.03
2022-10-07T09:58:28.766Z,3.20
2022-10-07T10:01:17.575Z,5.15
2022-10-07T10:04:04.887Z,4.80
2022-10-07T10:06:53.479Z,3.42
2022-10-07T10:09:50.688Z,5.03
2022-10-07T10:12:47.487Z,6.45
2022-10-07T10:15:43.077Z,2.30
2022-10-07T10:18:54.842Z,6.72
2022-10-07T10:21:42.589Z,5.28
2022-10-07T10:24:50.821Z,7.28
2022-10-07T10:27:46.759Z,5.93
2022-10-07T10:30:37.275Z,3.58
2022-10-07T10:33:30.921Z,7.03
2022-10-07T10:36:22.780Z,5.28
2022-10-07T10:39:21.596Z,5.10
2022-10-07T10:42:13.602Z,4.30
2022-10-07T10:45:13.768Z,1.85
2022-10-07T10:48:18.366Z,3.53
2022-10-07T10:51:25.417Z,3.13
2022-10-07T10:54:24.926Z,5.53
2022-10-07T10:57:21.362Z,3.40
2022-10-07T11:00:13.762Z,2.70
2022-10-07T11:03:14.543Z,5.22
2022-10-07T11:06:05.069Z,4.97
2022-10-07T11:08:57.159Z,2.45
2022-10-07T11:11:45.226Z,6.53
2022-10-07T11:14:33.267Z,2.92
2022-10-07T11:17:24.182Z,3.65
2022-10-07T11:20:20.208Z,4.20
2022-10-07T11:23:19.008Z,5.68
2022-10-07T11:26:14.090Z,3.78
2022-10-07T11:29:10.044Z,2.33
2022-10-07T11:32:05.428Z,4.53
2022-10-07T11:34:56.202Z,4.30
2022-10-07T11:37:51.522Z,2.08
2022-10-07T11:40:44.735Z,4.95
2022-10-07T11:43:39.154Z,3.83
2022-10-07T11:46:29.976Z,2.90
2022-10-07T11:49:20.952Z,4.18
2022-10-07T11:52:12.936Z,5.32
2022-10-07T11:55:04.627Z,5.78
2022-10-07T11:57:55.910Z,2.65
2022-10-07T12:00:44.267Z,3.47
2022-10-07T12:03:48.533Z,4.50
2022-10-07T12:06:35.498Z,4.13
2022-10-07T12:09:55.215Z,4.97
2022-10-07T12:12:50.704Z,5.18
2022-10-07T12:15:40.268Z,2.00
2022-10-07T12:18:31.491Z,4.45
2022-10-07T12:21:25.157Z,1.98
2022-10-07T12:24:16.996Z,4.60
2022-10-07T12:27:10.098Z,4.68
2022-10-07T12:30:02.480Z,1.65
2022-10-07T12:33:00.903Z,3.15
2022-10-07T12:35:54.509Z,2.42
2022-10-07T12:38:42.673Z,1.95
2022-10-07T12:41:30.765Z,2.78
2022-10-07T12:44:22.528Z,2.70
2022-10-07T12:47:19.870Z,2.35
2022-10-07T12:50:12.402Z,1.65
2022-10-07T12:53:03.527Z,4.88
2022-10-07T12:55:54.202Z,3.97
2022-10-07T12:59:20.870Z,4.90
2022-10-07T13:02:47.739Z,1.60
2022-10-07T13:06:27.385Z,3.72
2022-10-07T13:09:43.589Z,4.65
2022-10-07T13:12:45.252Z,2.28
2022-10-07T13:15:41.628Z,3.95
2022-10-07T13:18:37.313Z,4.80
2022-10-07T13:21:31.727Z,2.15
2022-10-07T13:24:24.803Z,1.38
2022-10-07T13:27:12.528Z,2.90
2022-10-07T13:30:02.068Z,2.72
2022-10-07T13:32:50.427Z,3.38
2022-10-07T13:35:39.784Z,5.20
2022-10-07T13:38:30.234Z,2.95
2022-10-07T13:41:29.501Z,3.03
2022-10-07T13:44:18.810Z,2.50
2022-10-07T13:47:11.812Z,3.95
2022-10-07T13:50:00.735Z,2.85
2022-10-07T13:52:49.728Z,1.70
2022-10-07T13:55:37.269Z,3.47
2022-10-07T13:58:25.822Z,3.13
2022-10-07T14:01:13.299Z,3.33
2022-10-07T14:04:12.726Z,2.60
2022-10-07T14:07:02.085Z,2.65
2022-10-07T14:09:51.523Z,1.60
2022-10-07T14:12:44.070Z,3.67
2022-10-07T14:15:35.162Z,1.80
2022-10-07T14:18:22.215Z,2.55
2022-10-07T14:21:16.765Z,1.65
2022-10-07T14:24:09.725Z,5.43
2022-10-07T14:26:56.934Z,2.30
2022-10-07T14:29:44.436Z,2.50
2022-10-07T14:32:50.325Z,2.58
2022-10-07T14:35:39.461Z,2.15
2022-10-07T14:38:27.747Z,3.10
2022-10-07T14:41:16.550Z,1.20
2022-10-07T14:44:04.034Z,1.92
2022-10-07T14:46:51.115Z,3.63
2022-10-07T14:49:42.191Z,2.78
2022-10-07T14:52:40.738Z,2.13
2022-10-07T14:55:30.809Z,2.15
2022-10-07T14:58:17.861Z,1.92
2022-10-07T15:01:07.772Z,2.90
2022-10-07T15:03:54.770Z,1.38
2022-10-07T15:06:47.459Z,3.60
2022-10-07T15:09:37.348Z,1.50
2022-10-07T15:12:24.527Z,1.55
2022-10-07T15:15:12.684Z,2.95
2022-10-07T15:17:59.781Z,3.92
2022-10-07T15:20:47.025Z,2.05
2022-10-07T15:23:36.008Z,3.30
2022-10-07T15:26:25.179Z,2.65
2022-10-07T15:29:13.300Z,2.78
2022-10-07T15:32:00.287Z,2.50
2022-10-07T15:34:48.740Z,1.67
2022-10-07T15:37:35.841Z,4.07
2022-10-07T15:40:24.285Z,1.27
2022-10-07T15:43:11.275Z,1.40
2022-10-07T15:46:01.123Z,3.67
2022-10-07T15:48:48.262Z,7.00
2022-10-07T15:51:36.246Z,3.55
2022-10-07T15:54:25.802Z,4.20
2022-10-07T15:57:15.786Z,2.00
2022-10-07T16:00:03.415Z,1.95
2022-10-07T16:03:03.193Z,1.92
2022-10-07T16:05:56.742Z,1.50
2022-10-07T16:08:44.520Z,2.88
2022-10-07T16:11:34.660Z,7.72
2022-10-07T16:14:23.344Z,3.00
2022-10-07T16:17:10.350Z,1.63
2022-10-07T16:19:57.527Z,3.90
2022-10-07T16:22:44.799Z,2.20
2022-10-07T16:25:31.957Z,2.85
2022-10-07T16:28:36.486Z,2.70
2022-10-07T16:31:24.815Z,4.70
2022-10-07T16:34:14.223Z,2.15
2022-10-07T16:37:01.157Z,5.97
2022-10-07T16:39:48.227Z,10.30
2022-10-07T16:42:35.464Z,6.55
2022-10-07T16:45:23.148Z,6.40
2022-10-07T16:48:12.133Z,3.10
2022-10-07T16:50:59.186Z,4.07
2022-10-07T16:53:48.865Z,6.70
2022-10-07T16:56:37.097Z,3.67
2022-10-07T16:59:25.445Z,6.95
2022-10-07T17:02:12.553Z,3.83
2022-10-07T17:05:00.932Z,4.63
2022-10-07T17:07:48.646Z,5.65
2022-10-07T17:10:36.124Z,3.60
2022-10-07T17:13:22.980Z,5.22
2022-10-07T17:16:10.420Z,5.15
2022-10-07T17:18:57.921Z,4.13
2022-10-07T17:21:47.543Z,10.32
2022-10-07T17:24:34.720Z,5.70
2022-10-07T17:27:21.829Z,5.60
2022-10-07T17:30:10.564Z,5.40
2022-10-07T17:32:57.552Z,7.70
2022-10-07T17:35:45.674Z,6.60
2022-10-07T17:38:38.705Z,8.70
2022-10-07T17:41:27.661Z,6.10
2022-10-07T17:44:14.915Z,8.43
2022-10-07T17:47:03.748Z,9.68
2022-10-07T17:49:51.256Z,7.45
2022-10-07T17:52:38.492Z,8.98
2022-10-07T17:55:27.174Z,6.57
2022-10-07T17:58:14.058Z,5.63
2022-10-07T18:01:06.521Z,8.35
2022-10-07T18:03:57.397Z,7.05
2022-10-07T18:06:44.504Z,7.70
2022-10-07T18:09:31.672Z,7.03
2022-10-07T18:12:37.659Z,8.90
2022-10-07T18:15:24.405Z,8.57
2022-10-07T18:18:11.345Z,6.50
2022-10-07T18:21:04.102Z,8.15
2022-10-07T18:23:52.516Z,6.03
2022-10-07T18:26:39.700Z,4.50
2022-10-07T18:29:28.581Z,7.30
2022-10-07T18:32:15.515Z,7.97
2022-10-07T18:35:02.852Z,7.93
2022-10-07T18:37:52.232Z,10.97
2022-10-07T18:40:39.437Z,6.00
2022-10-07T18:43:26.496Z,6.53
2022-10-07T18:46:18.035Z,5.30
2022-10-07T18:49:05.353Z,4.77
2022-10-07T18:51:52.620Z,5.57
2022-10-07T18:54:39.573Z,5.07
2022-10-07T18:57:26.773Z,5.83
2022-10-07T19:00:15.530Z,7.70
2022-10-07T19:03:04.081Z,9.47
2022-10-07T19:05:51.333Z,8.67
2022-10-07T19:08:39.242Z,15.90
2022-10-07T19:11:27.254Z,8.30
2022-10-07T19:14:14.371Z,9.20
2022-10-07T19:17:01.433Z,9.27
2022-10-07T19:19:49.810Z,8.00
2022-10-07T19:22:36.810Z,8.60
2022-10-07T19:25:41.138Z,8.37
2022-10-07T19:28:28.903Z,8.67
2022-10-07T19:31:19.222Z,6.23
2022-10-07T19:34:08.321Z,6.57
2022-10-07T19:36:57.355Z,5.73
2022-10-07T19:39:44.615Z,7.37
2022-10-07T19:42:31.751Z,7.07
2022-10-07T19:45:19.031Z,7.17
2022-10-07T19:48:11.698Z,5.70
2022-10-07T19:51:01.970Z,8.77
2022-10-07T19:53:51.312Z,6.03
2022-10-07T19:56:40.729Z,4.97
2022-10-07T19:59:28.099Z,7.77
2022-10-07T20:02:15.375Z,6.13
2022-10-07T20:05:02.534Z,6.87
2022-10-07T20:07:49.689Z,5.13
2022-10-07T20:10:39.508Z,5.80
2022-10-07T20:13:26.789Z,7.70
2022-10-07T20:16:18.807Z,6.30
2022-10-07T20:19:07.800Z,6.33
2022-10-07T20:21:55.449Z,5.83
2022-10-07T20:24:42.449Z,8.43
2022-10-07T20:27:30.766Z,5.53
2022-10-07T20:30:18.437Z,12.53
2022-10-07T20:33:06.333Z,20.67
2022-10-07T20:35:53.326Z,24.57
2022-10-07T20:39:01.068Z,15.70
2022-10-07T20:42:05.731Z,13.50
2022-10-07T20:44:54.518Z,10.97
2022-10-07T20:47:41.989Z,7.93
2022-10-07T20:50:29.276Z,9.40
2022-10-07T20:53:16.646Z,8.70
2022-10-07T20:56:04.498Z,11.17
2022-10-07T20:58:52.074Z,7.27
2022-10-07T21:01:41.399Z,9.53
2022-10-07T21:04:29.219Z,11.77
2022-10-07T21:07:18.430Z,7.27
2022-10-07T21:10:06.279Z,6.40
2022-10-07T21:12:53.335Z,11.27
2022-10-07T21:15:40.717Z,8.00
2022-10-07T21:18:31.161Z,6.93
2022-10-07T21:21:18.698Z,6.90
2022-10-07T21:24:07.150Z,7.67
2022-10-07T21:26:54.417Z,7.07
2022-10-07T21:29:43.225Z,10.23
2022-10-07T21:32:31.554Z,8.83
2022-10-07T21:35:19.847Z,6.70
2022-10-07T21:38:07.046Z,7.23
2022-10-07T21:40:54.055Z,5.40
2022-10-07T21:43:41.838Z,6.27
2022-10-07T21:46:30.502Z,5.57
2022-10-07T21:49:18.189Z,6.37
2022-10-07T21:52:06.771Z,6.50
2022-10-07T21:54:55.290Z,6.77
2022-10-07T21:57:42.569Z,7.57
2022-10-07T22:00:29.729Z,5.63
2022-10-07T22:03:16.893Z,9.10
2022-10-07T22:06:04.545Z,7.60
2022-10-07T22:08:56.158Z,6.83
2022-10-07T22:11:43.898Z,5.87
2022-10-07T22:14:31.212Z,7.23
2022-10-07T22:17:18.375Z,5.40
2022-10-07T22:20:05.942Z,10.40
2022-10-07T22:22:56.604Z,6.17
2022-10-07T22:25:48.796Z,8.00
2022-10-07T22:28:36.306Z,5.83
2022-10-07T22:31:23.386Z,5.53
2022-10-07T22:34:30.522Z,7.80
2022-10-07T22:37:17.535Z,6.77
2022-10-07T22:40:05.694Z,7.47
2022-10-07T22:42:54.043Z,8.50
2022-10-07T22:45:41.071Z,10.13
2022-10-07T22:48:31.244Z,7.83
2022-10-07T22:51:18.719Z,9.40
2022-10-07T22:54:07.145Z,10.60
2022-10-07T22:56:54.031Z,10.03
2022-10-07T22:59:42.251Z,8.93
2022-10-07T23:02:29.332Z,8.00
2022-10-07T23:05:17.120Z,8.30
2022-10-07T23:08:04.852Z,8.33
2022-10-07T23:10:56.989Z,5.53
2022-10-07T23:13:45.664Z,7.37
2022-10-07T23:16:34.603Z,6.60
2022-10-07T23:19:22.098Z,5.63
2022-10-07T23:22:09.690Z,6.60
2022-10-07T23:24:57.449Z,6.70
2022-10-07T23:27:44.507Z,6.10
2022-10-07T23:30:31.580Z,6.87
2022-10-07T23:33:20.035Z,7.27
2022-10-07T23:36:10.496Z,7.20
2022-10-07T23:38:59.939Z,7.00
2022-10-07T23:41:46.948Z,5.57
2022-10-07T23:44:34.279Z,8.23
2022-10-07T23:47:22.505Z,7.13
2022-10-07T23:50:12.933Z,12.17
2022-10-07T23:53:00.169Z,9.17
2022-10-07T23:55:48.100Z,7.67
2022-10-07T23:58:35.965Z,7.60
